Hippo Valley Airport


Codes: FVHY/
Name: Hippo Valley Airport
City: Chiredzi
Country: Zimbabwe
Elevation: 1420 ft.

Photos at Hippo Valley Airport


   Photos courtesy of SpottingLog. You can add your own sightings and photos by signing up for a free trial today.



No photos found.

Weather at Hippo Valley Airport


Time (UTC)DescriptionTempratureWindCloud coverageVisibilityPressureHumidity
17-Apr-2024 21:00Clear Sky19°C4 mph, SE0%10000m1021hPa62%
18-Apr-2024 00:00Clear Sky18°C2 mph, S0%10000m1021hPa66%
18-Apr-2024 03:00Clear Sky17°C0 mph, SE7%10000m1021hPa78%
18-Apr-2024 06:00Few Clouds21°C2 mph, S13%10000m1023hPa70%
18-Apr-2024 09:00Clear Sky28°C4 mph, SE1%10000m1021hPa44%
18-Apr-2024 12:00Clear Sky31°C7 mph, SE0%10000m1017hPa32%
18-Apr-2024 15:00Clear Sky30°C4 mph, SE0%10000m1016hPa34%
18-Apr-2024 18:00Clear Sky23°C7 mph, SE0%10000m1019hPa51%
18-Apr-2024 21:00Clear Sky21°C4 mph, E0%10000m1019hPa60%
19-Apr-2024 00:00Clear Sky18°C2 mph, NE0%10000m1019hPa70%
19-Apr-2024 03:00Clear Sky17°C2 mph, S0%10000m1019hPa81%
19-Apr-2024 06:00Clear Sky23°C0 mph, SE0%10000m1020hPa64%
19-Apr-2024 09:00Clear Sky30°C7 mph, SE0%10000m1018hPa38%
19-Apr-2024 12:00Clear Sky33°C9 mph, SE0%10000m1014hPa27%
19-Apr-2024 15:00Clear Sky31°C9 mph, SE0%10000m1014hPa29%
19-Apr-2024 18:00Clear Sky24°C7 mph, SE0%10000m1016hPa47%
19-Apr-2024 21:00Clear Sky22°C4 mph, E0%10000m1017hPa53%
20-Apr-2024 00:00Clear Sky19°C2 mph, NE2%10000m1016hPa66%
20-Apr-2024 03:00Clear Sky17°C0 mph, NE3%10000m1016hPa76%
20-Apr-2024 06:00Clear Sky23°C0 mph, E2%10000m1017hPa59%
20-Apr-2024 09:00Clear Sky31°C4 mph, SE0%10000m1016hPa34%
20-Apr-2024 12:00Clear Sky33°C7 mph, SE0%10000m1012hPa25%
20-Apr-2024 15:00Clear Sky31°C4 mph, E0%10000m1012hPa28%
20-Apr-2024 18:00Clear Sky23°C4 mph, E0%10000m1014hPa40%
20-Apr-2024 21:00Clear Sky21°C4 mph, NE0%10000m1015hPa49%
21-Apr-2024 00:00Clear Sky19°C2 mph, NE0%10000m1014hPa56%
21-Apr-2024 03:00Clear Sky18°C4 mph, N0%10000m1014hPa61%
21-Apr-2024 06:00Clear Sky24°C2 mph, NE0%10000m1015hPa43%
21-Apr-2024 09:00Clear Sky32°C7 mph, E0%10000m1014hPa25%
21-Apr-2024 12:00Clear Sky35°C9 mph, SE0%10000m1011hPa17%
21-Apr-2024 15:00Clear Sky32°C7 mph, E1%10000m1011hPa21%
21-Apr-2024 18:00Clear Sky24°C7 mph, E2%10000m1013hPa35%
21-Apr-2024 21:00Clear Sky21°C4 mph, NE0%10000m1014hPa50%
22-Apr-2024 00:00Clear Sky19°C2 mph, E0%10000m1014hPa61%
22-Apr-2024 03:00Clear Sky17°C2 mph, E0%10000m1015hPa68%
22-Apr-2024 06:00Clear Sky23°C2 mph, E0%10000m1017hPa48%
22-Apr-2024 09:00Clear Sky32°C7 mph, E0%10000m1015hPa24%
22-Apr-2024 12:00Clear Sky35°C7 mph, E0%10000m1011hPa16%
22-Apr-2024 15:00Clear Sky32°C7 mph, E0%10000m1011hPa20%
22-Apr-2024 18:00Clear Sky24°C4 mph, E0%10000m1013hPa32%